sensor_id;sensor_type;location;lat;lon;timestamp;temperature;humidity
45685;DHT22;46836;48.388;16.210;2023-08-30T00:01:37;16.50;99.90
45685;DHT22;46836;48.388;16.210;2023-08-30T00:04:04;16.50;99.90
45685;DHT22;46836;48.388;16.210;2023-08-30T00:06:31;16.50;99.90
45685;DHT22;46836;48.388;16.210;2023-08-30T00:08:58;16.50;99.90
45685;DHT22;46836;48.388;16.210;2023-08-30T00:11:26;16.60;99.90
45685;DHT22;46836;48.388;16.210;2023-08-30T00:14:03;16.60;99.90
45685;DHT22;46836;48.388;16.210;2023-08-30T00:16:33;16.60;99.90
45685;DHT22;46836;48.388;16.210;2023-08-30T00:19:01;16.50;99.90
45685;DHT22;46836;48.388;16.210;2023-08-30T00:21:28;16.50;99.90
45685;DHT22;46836;48.388;16.210;2023-08-30T00:23:55;16.60;99.90
45685;DHT22;46836;48.388;16.210;2023-08-30T00:26:22;16.60;99.90
45685;DHT22;46836;48.388;16.210;2023-08-30T00:28:49;16.60;99.90
45685;DHT22;46836;48.388;16.210;2023-08-30T00:31:16;16.50;99.90
45685;DHT22;46836;48.388;16.210;2023-08-30T00:33:44;16.50;99.90
45685;DHT22;46836;48.388;16.210;2023-08-30T00:36:11;16.50;99.90
45685;DHT22;46836;48.388;16.210;2023-08-30T00:38:38;16.50;99.90
45685;DHT22;46836;48.388;16.210;2023-08-30T00:41:05;16.50;99.90
45685;DHT22;46836;48.388;16.210;2023-08-30T00:43:32;16.50;99.90
45685;DHT22;46836;48.388;16.210;2023-08-30T00:45:59;16.50;99.90
45685;DHT22;46836;48.388;16.210;2023-08-30T00:48:27;16.50;99.90
45685;DHT22;46836;48.388;16.210;2023-08-30T00:50:54;16.40;99.90
45685;DHT22;46836;48.388;16.210;2023-08-30T00:53:22;16.50;99.90
45685;DHT22;46836;48.388;16.210;2023-08-30T00:55:49;16.50;99.90
45685;DHT22;46836;48.388;16.210;2023-08-30T00:58:16;16.50;99.90
45685;DHT22;46836;48.388;16.210;2023-08-30T01:00:43;16.50;99.90
45685;DHT22;46836;48.388;16.210;2023-08-30T01:03:11;16.50;99.90
45685;DHT22;46836;48.388;16.210;2023-08-30T01:05:38;16.40;99.90
45685;DHT22;46836;48.388;16.210;2023-08-30T01:08:05;16.50;99.90
45685;DHT22;46836;48.388;16.210;2023-08-30T01:13:42;16.50;99.90
45685;DHT22;46836;48.388;16.210;2023-08-30T01:16:12;16.50;99.90
45685;DHT22;46836;48.388;16.210;2023-08-30T01:18:40;16.40;99.90
45685;DHT22;46836;48.388;16.210;2023-08-30T01:21:14;16.50;99.90
45685;DHT22;46836;48.388;16.210;2023-08-30T01:23:56;16.50;99.90
45685;DHT22;46836;48.388;16.210;2023-08-30T01:29:09;16.60;99.90
45685;DHT22;46836;48.388;16.210;2023-08-30T01:31:40;16.50;99.90
45685;DHT22;46836;48.388;16.210;2023-08-30T01:34:08;16.60;99.90
45685;DHT22;46836;48.388;16.210;2023-08-30T01:36:36;16.60;99.90
45685;DHT22;46836;48.388;16.210;2023-08-30T01:39:03;16.60;99.90
45685;DHT22;46836;48.388;16.210;2023-08-30T01:41:32;16.60;99.90
45685;DHT22;46836;48.388;16.210;2023-08-30T01:44:02;16.60;99.90
45685;DHT22;46836;48.388;16.210;2023-08-30T01:46:33;16.60;99.90
45685;DHT22;46836;48.388;16.210;2023-08-30T01:49:03;16.60;99.90
45685;DHT22;46836;48.388;16.210;2023-08-30T01:51:31;16.60;99.90
45685;DHT22;46836;48.388;16.210;2023-08-30T01:54:00;16.60;99.90
45685;DHT22;46836;48.388;16.210;2023-08-30T01:56:27;16.60;99.90
45685;DHT22;46836;48.388;16.210;2023-08-30T01:58:54;16.60;99.90
45685;DHT22;46836;48.388;16.210;2023-08-30T02:01:21;16.60;99.90
45685;DHT22;46836;48.388;16.210;2023-08-30T02:03:49;16.60;99.90
45685;DHT22;46836;48.388;16.210;2023-08-30T02:06:25;16.60;99.90
45685;DHT22;46836;48.388;16.210;2023-08-30T02:09:01;16.60;99.90
45685;DHT22;46836;48.388;16.210;2023-08-30T02:11:33;16.60;99.90
45685;DHT22;46836;48.388;16.210;2023-08-30T02:14:04;16.50;99.90
45685;DHT22;46836;48.388;16.210;2023-08-30T02:16:34;16.50;99.90
45685;DHT22;46836;48.388;16.210;2023-08-30T02:19:02;16.50;99.90
45685;DHT22;46836;48.388;16.210;2023-08-30T02:21:29;16.50;99.90
45685;DHT22;46836;48.388;16.210;2023-08-30T02:23:56;16.50;99.90
45685;DHT22;46836;48.388;16.210;2023-08-30T02:26:23;16.50;99.90
45685;DHT22;46836;48.388;16.210;2023-08-30T02:28:51;16.50;99.90
45685;DHT22;46836;48.388;16.210;2023-08-30T02:31:18;16.50;99.90
45685;DHT22;46836;48.388;16.210;2023-08-30T02:33:45;16.50;99.90
45685;DHT22;46836;48.388;16.210;2023-08-30T02:36:12;16.40;99.90
45685;DHT22;46836;48.388;16.210;2023-08-30T02:38:39;16.40;99.90
45685;DHT22;46836;48.388;16.210;2023-08-30T02:41:06;16.40;99.90
45685;DHT22;46836;48.388;16.210;2023-08-30T02:43:33;16.40;99.90
45685;DHT22;46836;48.388;16.210;2023-08-30T02:46:00;16.40;99.90
45685;DHT22;46836;48.388;16.210;2023-08-30T02:48:28;16.40;99.90
45685;DHT22;46836;48.388;16.210;2023-08-30T02:50:55;16.40;99.90
45685;DHT22;46836;48.388;16.210;2023-08-30T02:53:22;16.40;99.90
45685;DHT22;46836;48.388;16.210;2023-08-30T02:55:50;16.40;99.90
45685;DHT22;46836;48.388;16.210;2023-08-30T02:58:17;16.40;99.90
45685;DHT22;46836;48.388;16.210;2023-08-30T03:00:44;16.40;99.90
45685;DHT22;46836;48.388;16.210;2023-08-30T03:03:11;16.40;99.90
45685;DHT22;46836;48.388;16.210;2023-08-30T03:05:38;16.40;99.90
45685;DHT22;46836;48.388;16.210;2023-08-30T03:08:05;16.40;99.90
45685;DHT22;46836;48.388;16.210;2023-08-30T03:10:33;16.30;99.90
45685;DHT22;46836;48.388;16.210;2023-08-30T03:13:00;16.30;99.90
45685;DHT22;46836;48.388;16.210;2023-08-30T03:15:30;16.30;99.90
45685;DHT22;46836;48.388;16.210;2023-08-30T03:17:57;16.30;99.90
45685;DHT22;46836;48.388;16.210;2023-08-30T03:20:25;16.30;99.90
45685;DHT22;46836;48.388;16.210;2023-08-30T03:22:52;16.30;99.90
45685;DHT22;46836;48.388;16.210;2023-08-30T03:25:19;16.30;99.90
45685;DHT22;46836;48.388;16.210;2023-08-30T03:27:46;16.30;99.90
45685;DHT22;46836;48.388;16.210;2023-08-30T03:30:13;16.30;99.90
45685;DHT22;46836;48.388;16.210;2023-08-30T03:32:40;16.20;99.90
45685;DHT22;46836;48.388;16.210;2023-08-30T03:35:07;16.20;99.90
45685;DHT22;46836;48.388;16.210;2023-08-30T03:37:35;16.20;99.90
45685;DHT22;46836;48.388;16.210;2023-08-30T03:40:02;16.20;99.90
45685;DHT22;46836;48.388;16.210;2023-08-30T03:42:31;16.20;99.90
45685;DHT22;46836;48.388;16.210;2023-08-30T03:44:58;16.10;99.90
45685;DHT22;46836;48.388;16.210;2023-08-30T03:47:25;16.20;99.90
45685;DHT22;46836;48.388;16.210;2023-08-30T03:49:52;16.20;99.90
45685;DHT22;46836;48.388;16.210;2023-08-30T03:52:19;16.10;99.90
45685;DHT22;46836;48.388;16.210;2023-08-30T03:54:46;16.10;99.90
45685;DHT22;46836;48.388;16.210;2023-08-30T03:57:13;16.10;99.90
45685;DHT22;46836;48.388;16.210;2023-08-30T03:59:40;16.10;99.90
45685;DHT22;46836;48.388;16.210;2023-08-30T04:02:07;16.00;99.90
45685;DHT22;46836;48.388;16.210;2023-08-30T04:04:34;16.00;99.90
45685;DHT22;46836;48.388;16.210;2023-08-30T04:07:01;16.00;99.90
45685;DHT22;46836;48.388;16.210;2023-08-30T04:09:29;16.00;99.90
45685;DHT22;46836;48.388;16.210;2023-08-30T04:11:56;15.90;99.90
45685;DHT22;46836;48.388;16.210;2023-08-30T04:14:24;15.90;99.90
45685;DHT22;46836;48.388;16.210;2023-08-30T04:16:52;16.00;99.90
45685;DHT22;46836;48.388;16.210;2023-08-30T04:19:19;16.00;99.90
45685;DHT22;46836;48.388;16.210;2023-08-30T04:21:46;16.00;99.90
45685;DHT22;46836;48.388;16.210;2023-08-30T04:24:14;16.10;99.90
45685;DHT22;46836;48.388;16.210;2023-08-30T04:26:41;16.00;99.90
45685;DHT22;46836;48.388;16.210;2023-08-30T04:29:09;16.00;99.90
45685;DHT22;46836;48.388;16.210;2023-08-30T04:31:36;16.00;99.90
45685;DHT22;46836;48.388;16.210;2023-08-30T04:34:03;16.00;99.90
45685;DHT22;46836;48.388;16.210;2023-08-30T04:36:30;16.00;99.90
45685;DHT22;46836;48.388;16.210;2023-08-30T04:38:57;16.10;99.90
45685;DHT22;46836;48.388;16.210;2023-08-30T04:41:30;16.10;99.90
45685;DHT22;46836;48.388;16.210;2023-08-30T04:44:00;16.00;99.90
45685;DHT22;46836;48.388;16.210;2023-08-30T04:46:27;16.10;99.90
45685;DHT22;46836;48.388;16.210;2023-08-30T04:48:54;16.00;99.90
45685;DHT22;46836;48.388;16.210;2023-08-30T04:51:21;16.00;99.90
45685;DHT22;46836;48.388;16.210;2023-08-30T04:53:48;16.00;99.90
45685;DHT22;46836;48.388;16.210;2023-08-30T04:56:16;16.00;99.90
45685;DHT22;46836;48.388;16.210;2023-08-30T04:58:45;16.00;99.90
45685;DHT22;46836;48.388;16.210;2023-08-30T05:01:12;16.00;99.90
45685;DHT22;46836;48.388;16.210;2023-08-30T05:03:40;16.00;99.90
45685;DHT22;46836;48.388;16.210;2023-08-30T05:06:08;16.00;99.90
45685;DHT22;46836;48.388;16.210;2023-08-30T05:08:35;16.10;99.90
45685;DHT22;46836;48.388;16.210;2023-08-30T05:11:02;16.10;99.90
45685;DHT22;46836;48.388;16.210;2023-08-30T05:13:32;16.10;99.90
45685;DHT22;46836;48.388;16.210;2023-08-30T05:15:59;16.20;99.90
45685;DHT22;46836;48.388;16.210;2023-08-30T05:18:26;16.20;99.90
45685;DHT22;46836;48.388;16.210;2023-08-30T05:20:53;16.20;99.90
45685;DHT22;46836;48.388;16.210;2023-08-30T05:23:20;16.20;99.90
45685;DHT22;46836;48.388;16.210;2023-08-30T05:25:48;16.30;99.90
45685;DHT22;46836;48.388;16.210;2023-08-30T05:28:15;16.30;99.90
45685;DHT22;46836;48.388;16.210;2023-08-30T05:30:43;16.30;99.90
45685;DHT22;46836;48.388;16.210;2023-08-30T05:33:10;16.30;99.90
45685;DHT22;46836;48.388;16.210;2023-08-30T05:35:37;16.30;99.90
45685;DHT22;46836;48.388;16.210;2023-08-30T05:38:04;16.30;99.90
45685;DHT22;46836;48.388;16.210;2023-08-30T05:40:32;16.30;99.90
45685;DHT22;46836;48.388;16.210;2023-08-30T05:42:59;16.30;99.90
45685;DHT22;46836;48.388;16.210;2023-08-30T05:45:26;16.30;99.90
45685;DHT22;46836;48.388;16.210;2023-08-30T05:47:53;16.30;99.90
45685;DHT22;46836;48.388;16.210;2023-08-30T05:50:20;16.30;99.90
45685;DHT22;46836;48.388;16.210;2023-08-30T05:52:48;16.40;99.90
45685;DHT22;46836;48.388;16.210;2023-08-30T05:55:15;16.40;99.90
45685;DHT22;46836;48.388;16.210;2023-08-30T05:57:42;16.40;99.90
45685;DHT22;46836;48.388;16.210;2023-08-30T06:00:09;16.40;99.90
45685;DHT22;46836;48.388;16.210;2023-08-30T06:02:36;16.50;99.90
45685;DHT22;46836;48.388;16.210;2023-08-30T06:05:04;16.50;99.90
45685;DHT22;46836;48.388;16.210;2023-08-30T06:07:31;16.60;99.90
45685;DHT22;46836;48.388;16.210;2023-08-30T06:09:58;16.60;99.90
45685;DHT22;46836;48.388;16.210;2023-08-30T06:12:25;16.60;99.90
45685;DHT22;46836;48.388;16.210;2023-08-30T06:14:52;16.70;99.90
45685;DHT22;46836;48.388;16.210;2023-08-30T06:17:20;16.70;99.90
45685;DHT22;46836;48.388;16.210;2023-08-30T06:19:47;16.80;99.90
45685;DHT22;46836;48.388;16.210;2023-08-30T06:22:14;16.80;99.90
45685;DHT22;46836;48.388;16.210;2023-08-30T06:24:42;16.80;99.90
45685;DHT22;46836;48.388;16.210;2023-08-30T06:27:09;16.90;99.90
45685;DHT22;46836;48.388;16.210;2023-08-30T06:29:36;17.00;99.90
45685;DHT22;46836;48.388;16.210;2023-08-30T06:32:04;17.00;99.90
45685;DHT22;46836;48.388;16.210;2023-08-30T06:34:31;17.10;99.90
45685;DHT22;46836;48.388;16.210;2023-08-30T06:36:58;17.20;99.90
45685;DHT22;46836;48.388;16.210;2023-08-30T06:39:25;17.20;99.90
45685;DHT22;46836;48.388;16.210;2023-08-30T06:41:58;17.30;99.90
45685;DHT22;46836;48.388;16.210;2023-08-30T06:44:26;17.40;99.90
45685;DHT22;46836;48.388;16.210;2023-08-30T06:46:53;17.50;99.90
45685;DHT22;46836;48.388;16.210;2023-08-30T06:49:21;17.60;99.90
45685;DHT22;46836;48.388;16.210;2023-08-30T06:51:48;17.70;99.90
45685;DHT22;46836;48.388;16.210;2023-08-30T06:54:15;17.80;99.90
45685;DHT22;46836;48.388;16.210;2023-08-30T06:56:59;17.80;99.90
45685;DHT22;46836;48.388;16.210;2023-08-30T06:59:27;18.00;99.90
45685;DHT22;46836;48.388;16.210;2023-08-30T07:01:54;18.10;99.90
45685;DHT22;46836;48.388;16.210;2023-08-30T07:04:21;18.10;99.90
45685;DHT22;46836;48.388;16.210;2023-08-30T07:06:50;18.20;99.90
45685;DHT22;46836;48.388;16.210;2023-08-30T07:09:17;18.40;99.90
45685;DHT22;46836;48.388;16.210;2023-08-30T07:11:47;18.50;99.90
45685;DHT22;46836;48.388;16.210;2023-08-30T07:14:15;18.60;99.90
45685;DHT22;46836;48.388;16.210;2023-08-30T07:16:43;18.70;99.90
45685;DHT22;46836;48.388;16.210;2023-08-30T07:19:11;18.70;99.90
45685;DHT22;46836;48.388;16.210;2023-08-30T07:21:38;18.70;99.90
45685;DHT22;46836;48.388;16.210;2023-08-30T07:24:08;18.70;99.90
45685;DHT22;46836;48.388;16.210;2023-08-30T07:26:36;18.70;99.90
45685;DHT22;46836;48.388;16.210;2023-08-30T07:29:04;18.60;99.90
45685;DHT22;46836;48.388;16.210;2023-08-30T07:31:34;18.60;99.90
45685;DHT22;46836;48.388;16.210;2023-08-30T07:34:01;18.60;99.90
45685;DHT22;46836;48.388;16.210;2023-08-30T07:36:29;18.70;99.90
45685;DHT22;46836;48.388;16.210;2023-08-30T07:39:13;18.80;99.90
45685;DHT22;46836;48.388;16.210;2023-08-30T07:41:40;18.90;99.90
45685;DHT22;46836;48.388;16.210;2023-08-30T07:44:07;19.00;99.90
45685;DHT22;46836;48.388;16.210;2023-08-30T07:46:34;19.20;99.90
45685;DHT22;46836;48.388;16.210;2023-08-30T07:49:01;19.20;99.90
45685;DHT22;46836;48.388;16.210;2023-08-30T07:51:29;19.20;99.90
45685;DHT22;46836;48.388;16.210;2023-08-30T07:53:56;19.10;99.90
45685;DHT22;46836;48.388;16.210;2023-08-30T07:56:23;19.20;99.90
45685;DHT22;46836;48.388;16.210;2023-08-30T07:58:51;19.10;99.90
45685;DHT22;46836;48.388;16.210;2023-08-30T08:01:18;19.20;99.90
45685;DHT22;46836;48.388;16.210;2023-08-30T08:03:45;19.10;99.90
45685;DHT22;46836;48.388;16.210;2023-08-30T08:06:32;19.10;99.90
45685;DHT22;46836;48.388;16.210;2023-08-30T08:09:00;19.10;99.90
45685;DHT22;46836;48.388;16.210;2023-08-30T08:11:27;19.10;99.90
45685;DHT22;46836;48.388;16.210;2023-08-30T08:13:55;19.20;99.90
45685;DHT22;46836;48.388;16.210;2023-08-30T08:16:22;19.20;99.90
45685;DHT22;46836;48.388;16.210;2023-08-30T08:18:49;19.20;99.90
45685;DHT22;46836;48.388;16.210;2023-08-30T08:21:17;19.10;99.90
45685;DHT22;46836;48.388;16.210;2023-08-30T08:23:44;19.40;99.90
45685;DHT22;46836;48.388;16.210;2023-08-30T08:26:13;19.40;99.90
45685;DHT22;46836;48.388;16.210;2023-08-30T08:28:41;19.30;99.90
45685;DHT22;46836;48.388;16.210;2023-08-30T08:31:08;19.20;99.90
45685;DHT22;46836;48.388;16.210;2023-08-30T08:33:36;19.10;99.90
45685;DHT22;46836;48.388;16.210;2023-08-30T08:36:03;19.20;99.90
45685;DHT22;46836;48.388;16.210;2023-08-30T08:38:30;19.40;99.90
45685;DHT22;46836;48.388;16.210;2023-08-30T08:41:05;19.40;99.90
45685;DHT22;46836;48.388;16.210;2023-08-30T08:43:33;19.40;99.90
45685;DHT22;46836;48.388;16.210;2023-08-30T08:46:03;19.60;99.90
45685;DHT22;46836;48.388;16.210;2023-08-30T08:48:39;19.80;99.90
45685;DHT22;46836;48.388;16.210;2023-08-30T08:51:06;19.90;99.90
45685;DHT22;46836;48.388;16.210;2023-08-30T08:53:33;19.90;99.90
45685;DHT22;46836;48.388;16.210;2023-08-30T08:56:01;19.90;99.90
45685;DHT22;46836;48.388;16.210;2023-08-30T08:58:29;19.90;99.90
45685;DHT22;46836;48.388;16.210;2023-08-30T09:00:56;19.90;99.90
45685;DHT22;46836;48.388;16.210;2023-08-30T09:03:24;19.90;99.90
45685;DHT22;46836;48.388;16.210;2023-08-30T09:05:52;20.00;99.90
45685;DHT22;46836;48.388;16.210;2023-08-30T09:08:21;20.00;99.90
45685;DHT22;46836;48.388;16.210;2023-08-30T09:10:48;20.00;99.90
45685;DHT22;46836;48.388;16.210;2023-08-30T09:13:17;20.00;99.90
45685;DHT22;46836;48.388;16.210;2023-08-30T09:15:45;20.00;99.90
45685;DHT22;46836;48.388;16.210;2023-08-30T09:18:18;20.00;99.90
45685;DHT22;46836;48.388;16.210;2023-08-30T09:20:45;19.80;99.90
45685;DHT22;46836;48.388;16.210;2023-08-30T09:23:19;19.80;99.90
45685;DHT22;46836;48.388;16.210;2023-08-30T09:25:47;19.70;99.90
45685;DHT22;46836;48.388;16.210;2023-08-30T09:28:20;19.80;99.90
45685;DHT22;46836;48.388;16.210;2023-08-30T09:30:51;19.90;99.90
45685;DHT22;46836;48.388;16.210;2023-08-30T09:33:31;19.90;99.90
45685;DHT22;46836;48.388;16.210;2023-08-30T09:35:59;19.80;99.90
45685;DHT22;46836;48.388;16.210;2023-08-30T09:38:27;19.70;99.90
45685;DHT22;46836;48.388;16.210;2023-08-30T09:41:04;19.60;99.90
45685;DHT22;46836;48.388;16.210;2023-08-30T09:43:32;19.70;99.90
45685;DHT22;46836;48.388;16.210;2023-08-30T09:46:04;19.60;99.90
45685;DHT22;46836;48.388;16.210;2023-08-30T09:48:32;19.60;99.90
45685;DHT22;46836;48.388;16.210;2023-08-30T09:51:01;19.60;99.90
45685;DHT22;46836;48.388;16.210;2023-08-30T09:53:33;19.70;99.90
45685;DHT22;46836;48.388;16.210;2023-08-30T09:56:15;19.70;99.90
45685;DHT22;46836;48.388;16.210;2023-08-30T09:58:43;19.60;99.90
45685;DHT22;46836;48.388;16.210;2023-08-30T10:01:11;19.70;99.90
45685;DHT22;46836;48.388;16.210;2023-08-30T10:03:39;19.70;99.90
45685;DHT22;46836;48.388;16.210;2023-08-30T10:06:07;19.80;99.90
45685;DHT22;46836;48.388;16.210;2023-08-30T10:08:35;19.90;99.90
45685;DHT22;46836;48.388;16.210;2023-08-30T10:11:04;19.80;99.90
45685;DHT22;46836;48.388;16.210;2023-08-30T10:13:34;19.80;99.90
45685;DHT22;46836;48.388;16.210;2023-08-30T10:16:02;19.70;99.90
45685;DHT22;46836;48.388;16.210;2023-08-30T10:18:32;19.80;99.90
45685;DHT22;46836;48.388;16.210;2023-08-30T10:21:00;19.70;99.90
45685;DHT22;46836;48.388;16.210;2023-08-30T10:23:30;19.70;99.90
45685;DHT22;46836;48.388;16.210;2023-08-30T10:25:58;19.60;99.90
45685;DHT22;46836;48.388;16.210;2023-08-30T10:28:26;19.60;99.90
45685;DHT22;46836;48.388;16.210;2023-08-30T10:30:54;19.70;99.90
45685;DHT22;46836;48.388;16.210;2023-08-30T10:33:21;19.70;99.90
45685;DHT22;46836;48.388;16.210;2023-08-30T10:35:53;19.70;99.90
45685;DHT22;46836;48.388;16.210;2023-08-30T10:38:27;19.70;99.90
45685;DHT22;46836;48.388;16.210;2023-08-30T10:40:55;19.80;99.90
45685;DHT22;46836;48.388;16.210;2023-08-30T10:43:30;19.80;99.90
45685;DHT22;46836;48.388;16.210;2023-08-30T10:46:00;19.90;99.90
45685;DHT22;46836;48.388;16.210;2023-08-30T10:48:38;20.10;99.90
45685;DHT22;46836;48.388;16.210;2023-08-30T10:51:37;20.20;99.90
45685;DHT22;46836;48.388;16.210;2023-08-30T10:54:14;20.40;99.90
45685;DHT22;46836;48.388;16.210;2023-08-30T10:56:49;20.60;99.90
45685;DHT22;46836;48.388;16.210;2023-08-30T10:59:22;20.80;99.90
45685;DHT22;46836;48.388;16.210;2023-08-30T11:01:51;20.80;99.90
45685;DHT22;46836;48.388;16.210;2023-08-30T11:04:20;20.90;99.90
45685;DHT22;46836;48.388;16.210;2023-08-30T11:06:50;20.90;99.90
45685;DHT22;46836;48.388;16.210;2023-08-30T11:09:22;20.80;99.90
45685;DHT22;46836;48.388;16.210;2023-08-30T11:11:50;20.80;99.90
45685;DHT22;46836;48.388;16.210;2023-08-30T11:14:18;20.90;99.90
45685;DHT22;46836;48.388;16.210;2023-08-30T11:16:46;20.90;99.90
45685;DHT22;46836;48.388;16.210;2023-08-30T11:19:13;20.90;99.90
45685;DHT22;46836;48.388;16.210;2023-08-30T11:21:43;20.90;99.90
45685;DHT22;46836;48.388;16.210;2023-08-30T11:24:11;20.80;99.90
45685;DHT22;46836;48.388;16.210;2023-08-30T11:26:39;20.70;99.90
45685;DHT22;46836;48.388;16.210;2023-08-30T11:29:09;20.80;99.90
45685;DHT22;46836;48.388;16.210;2023-08-30T11:31:36;20.90;99.90
45685;DHT22;46836;48.388;16.210;2023-08-30T11:34:03;21.10;99.90
45685;DHT22;46836;48.388;16.210;2023-08-30T11:36:32;21.00;99.90
45685;DHT22;46836;48.388;16.210;2023-08-30T11:39:02;21.10;99.90
45685;DHT22;46836;48.388;16.210;2023-08-30T11:41:31;21.20;99.90
45685;DHT22;46836;48.388;16.210;2023-08-30T11:43:59;21.60;99.90
45685;DHT22;46836;48.388;16.210;2023-08-30T11:46:26;21.90;99.90
45685;DHT22;46836;48.388;16.210;2023-08-30T11:48:53;21.90;99.90
45685;DHT22;46836;48.388;16.210;2023-08-30T11:51:21;22.10;99.90
45685;DHT22;46836;48.388;16.210;2023-08-30T11:53:48;22.20;99.90
45685;DHT22;46836;48.388;16.210;2023-08-30T11:56:16;22.30;99.90
45685;DHT22;46836;48.388;16.210;2023-08-30T11:58:45;22.20;99.90
45685;DHT22;46836;48.388;16.210;2023-08-30T12:01:13;22.30;99.90
45685;DHT22;46836;48.388;16.210;2023-08-30T12:03:40;22.20;99.90
45685;DHT22;46836;48.388;16.210;2023-08-30T12:06:11;22.20;99.90
45685;DHT22;46836;48.388;16.210;2023-08-30T12:08:39;22.10;99.90
45685;DHT22;46836;48.388;16.210;2023-08-30T12:11:20;22.10;99.90
45685;DHT22;46836;48.388;16.210;2023-08-30T12:13:47;22.00;99.90
45685;DHT22;46836;48.388;16.210;2023-08-30T12:16:17;21.80;99.90
45685;DHT22;46836;48.388;16.210;2023-08-30T12:18:44;21.70;99.90
45685;DHT22;46836;48.388;16.210;2023-08-30T12:21:13;21.70;99.90
45685;DHT22;46836;48.388;16.210;2023-08-30T12:23:40;21.90;99.90
45685;DHT22;46836;48.388;16.210;2023-08-30T12:26:09;22.30;99.90
45685;DHT22;46836;48.388;16.210;2023-08-30T12:28:41;22.60;99.90
45685;DHT22;46836;48.388;16.210;2023-08-30T12:31:11;22.60;99.90
45685;DHT22;46836;48.388;16.210;2023-08-30T12:33:39;22.70;99.90
45685;DHT22;46836;48.388;16.210;2023-08-30T12:36:07;22.80;99.90
45685;DHT22;46836;48.388;16.210;2023-08-30T12:38:34;22.80;99.90
45685;DHT22;46836;48.388;16.210;2023-08-30T12:41:01;22.70;99.90
45685;DHT22;46836;48.388;16.210;2023-08-30T12:43:29;22.50;99.90
45685;DHT22;46836;48.388;16.210;2023-08-30T12:45:56;22.30;99.90
45685;DHT22;46836;48.388;16.210;2023-08-30T12:48:23;22.30;99.90
45685;DHT22;46836;48.388;16.210;2023-08-30T12:50:50;22.10;99.90
45685;DHT22;46836;48.388;16.210;2023-08-30T12:53:17;22.00;99.90
45685;DHT22;46836;48.388;16.210;2023-08-30T12:55:45;21.90;99.90
45685;DHT22;46836;48.388;16.210;2023-08-30T12:58:12;21.80;99.90
45685;DHT22;46836;48.388;16.210;2023-08-30T13:00:40;21.90;99.90
45685;DHT22;46836;48.388;16.210;2023-08-30T13:03:08;21.80;99.90
45685;DHT22;46836;48.388;16.210;2023-08-30T13:05:36;21.80;99.90
45685;DHT22;46836;48.388;16.210;2023-08-30T13:08:03;21.70;99.90
45685;DHT22;46836;48.388;16.210;2023-08-30T13:10:31;21.70;99.90
45685;DHT22;46836;48.388;16.210;2023-08-30T13:12:58;21.70;99.90
45685;DHT22;46836;48.388;16.210;2023-08-30T13:15:25;21.70;99.90
45685;DHT22;46836;48.388;16.210;2023-08-30T13:17:52;21.60;99.90
45685;DHT22;46836;48.388;16.210;2023-08-30T13:20:20;21.70;99.90
45685;DHT22;46836;48.388;16.210;2023-08-30T13:22:47;21.70;99.90
45685;DHT22;46836;48.388;16.210;2023-08-30T13:25:14;21.70;99.90
45685;DHT22;46836;48.388;16.210;2023-08-30T13:27:41;21.80;99.90
45685;DHT22;46836;48.388;16.210;2023-08-30T13:30:09;21.80;99.90
45685;DHT22;46836;48.388;16.210;2023-08-30T13:32:37;21.70;99.90
45685;DHT22;46836;48.388;16.210;2023-08-30T13:35:04;21.70;99.90
45685;DHT22;46836;48.388;16.210;2023-08-30T13:37:32;21.60;99.90
45685;DHT22;46836;48.388;16.210;2023-08-30T13:39:59;21.70;99.90
45685;DHT22;46836;48.388;16.210;2023-08-30T13:42:27;21.70;99.90
45685;DHT22;46836;48.388;16.210;2023-08-30T13:44:54;21.70;99.90
45685;DHT22;46836;48.388;16.210;2023-08-30T13:47:21;21.50;99.90
45685;DHT22;46836;48.388;16.210;2023-08-30T13:49:49;21.40;99.90
45685;DHT22;46836;48.388;16.210;2023-08-30T13:52:16;21.40;99.90
45685;DHT22;46836;48.388;16.210;2023-08-30T13:54:43;21.30;99.90
45685;DHT22;46836;48.388;16.210;2023-08-30T13:57:11;21.30;99.90
45685;DHT22;46836;48.388;16.210;2023-08-30T13:59:38;21.30;99.90
45685;DHT22;46836;48.388;16.210;2023-08-30T14:02:06;21.30;99.90
45685;DHT22;46836;48.388;16.210;2023-08-30T14:04:33;21.40;99.90
45685;DHT22;46836;48.388;16.210;2023-08-30T14:07:01;21.40;99.90
45685;DHT22;46836;48.388;16.210;2023-08-30T14:09:28;21.40;99.90
45685;DHT22;46836;48.388;16.210;2023-08-30T14:11:55;21.40;99.90
45685;DHT22;46836;48.388;16.210;2023-08-30T14:14:23;21.40;99.90
45685;DHT22;46836;48.388;16.210;2023-08-30T14:16:50;21.30;99.90
45685;DHT22;46836;48.388;16.210;2023-08-30T14:19:17;21.20;99.90
45685;DHT22;46836;48.388;16.210;2023-08-30T14:21:44;21.20;99.90
45685;DHT22;46836;48.388;16.210;2023-08-30T14:24:12;21.10;99.90
45685;DHT22;46836;48.388;16.210;2023-08-30T14:26:39;21.10;99.90
45685;DHT22;46836;48.388;16.210;2023-08-30T14:29:06;21.10;99.90
45685;DHT22;46836;48.388;16.210;2023-08-30T14:31:34;21.00;99.90
45685;DHT22;46836;48.388;16.210;2023-08-30T14:34:01;20.90;99.90
45685;DHT22;46836;48.388;16.210;2023-08-30T14:36:30;20.80;99.90
45685;DHT22;46836;48.388;16.210;2023-08-30T14:38:57;20.80;99.90
45685;DHT22;46836;48.388;16.210;2023-08-30T14:41:25;20.80;99.90
45685;DHT22;46836;48.388;16.210;2023-08-30T14:43:52;20.80;99.90
45685;DHT22;46836;48.388;16.210;2023-08-30T14:46:20;20.80;99.90
45685;DHT22;46836;48.388;16.210;2023-08-30T14:48:50;20.80;99.90
45685;DHT22;46836;48.388;16.210;2023-08-30T14:51:17;20.90;99.90
45685;DHT22;46836;48.388;16.210;2023-08-30T14:53:45;20.90;99.90
45685;DHT22;46836;48.388;16.210;2023-08-30T14:56:12;20.90;99.90
45685;DHT22;46836;48.388;16.210;2023-08-30T14:58:39;21.00;99.90
45685;DHT22;46836;48.388;16.210;2023-08-30T15:01:09;21.00;99.90
45685;DHT22;46836;48.388;16.210;2023-08-30T15:03:37;21.00;99.90
45685;DHT22;46836;48.388;16.210;2023-08-30T15:06:04;21.00;99.90
45685;DHT22;46836;48.388;16.210;2023-08-30T15:08:31;21.00;99.90
45685;DHT22;46836;48.388;16.210;2023-08-30T15:10:59;21.10;99.90
45685;DHT22;46836;48.388;16.210;2023-08-30T15:13:26;21.10;99.90
45685;DHT22;46836;48.388;16.210;2023-08-30T15:15:54;21.10;99.90
45685;DHT22;46836;48.388;16.210;2023-08-30T15:18:21;21.10;99.90
45685;DHT22;46836;48.388;16.210;2023-08-30T15:20:52;21.10;99.90
45685;DHT22;46836;48.388;16.210;2023-08-30T15:23:20;21.20;99.90
45685;DHT22;46836;48.388;16.210;2023-08-30T15:25:48;21.20;99.90
45685;DHT22;46836;48.388;16.210;2023-08-30T15:28:17;21.20;99.90